<?xml version="1.0" encoding="UTF-8" standalone="no" ?>
<gpx xmlns="http://www.topografix.com/GPX/1/1" xmlns:xsi="http://www.w3.org/2001/XMLSchema-instance" xsi:schemaLocation="http://www.topografix.com/GPX/1/1 http://www.topografix.com/GPX/1/1/gpx.xsd" version="1.1" creator="VisuGPX - https://www.visugpx.com">
  <metadata>
    <name>14571789-Et3 Revel - D1</name>
  </metadata>
  <trk>
    <name><![CDATA[14571789-Et3 Revel - D1]]></name>
    <trkseg>
      <trkpt lat="43.45994" lon="2.00528">
        <ele>217</ele>
        <time>2022-04-14T14:22:42Z</time>
      </trkpt>
      <trkpt lat="43.46014" lon="2.00503">
        <ele>217</ele>
        <time>2022-04-14T14:23:18Z</time>
      </trkpt>
      <trkpt lat="43.45458" lon="2.00117">
        <ele>216</ele>
        <time>2022-04-14T14:37:09Z</time>
      </trkpt>
      <trkpt lat="43.45359" lon="2.00102">
        <ele>219</ele>
        <time>2022-04-14T14:39:22Z</time>
      </trkpt>
      <trkpt lat="43.45132" lon="1.99948">
        <ele>228</ele>
        <time>2022-04-14T14:44:59Z</time>
      </trkpt>
      <trkpt lat="43.45142" lon="1.99902">
        <ele>227</ele>
        <time>2022-04-14T14:45:46Z</time>
      </trkpt>
      <trkpt lat="43.45139" lon="1.99833">
        <ele>226</ele>
        <time>2022-04-14T14:46:53Z</time>
      </trkpt>
      <trkpt lat="43.4517" lon="1.99716">
        <ele>225</ele>
        <time>2022-04-14T14:48:54Z</time>
      </trkpt>
      <trkpt lat="43.45169" lon="1.99669">
        <ele>225</ele>
        <time>2022-04-14T14:49:39Z</time>
      </trkpt>
      <trkpt lat="43.45157" lon="1.996">
        <ele>224</ele>
        <time>2022-04-14T14:50:48Z</time>
      </trkpt>
      <trkpt lat="43.45111" lon="1.99549">
        <ele>225</ele>
        <time>2022-04-14T14:52:07Z</time>
      </trkpt>
      <trkpt lat="43.451" lon="1.99481">
        <ele>225</ele>
        <time>2022-04-14T14:53:14Z</time>
      </trkpt>
      <trkpt lat="43.45029" lon="1.99239">
        <ele>226</ele>
        <time>2022-04-14T14:57:27Z</time>
      </trkpt>
      <trkpt lat="43.45035" lon="1.9901">
        <ele>226</ele>
        <time>2022-04-14T15:01:09Z</time>
      </trkpt>
      <trkpt lat="43.45021" lon="1.98888">
        <ele>226</ele>
        <time>2022-04-14T15:03:09Z</time>
      </trkpt>
      <trkpt lat="43.45011" lon="1.98856">
        <ele>226</ele>
        <time>2022-04-14T15:03:42Z</time>
      </trkpt>
      <trkpt lat="43.44943" lon="1.98727">
        <ele>226</ele>
        <time>2022-04-14T15:06:17Z</time>
      </trkpt>
      <trkpt lat="43.4494" lon="1.98662">
        <ele>225</ele>
        <time>2022-04-14T15:07:20Z</time>
      </trkpt>
      <trkpt lat="43.44902" lon="1.98394">
        <ele>223</ele>
        <time>2022-04-14T15:11:45Z</time>
      </trkpt>
      <trkpt lat="43.44873" lon="1.98373">
        <ele>224</ele>
        <time>2022-04-14T15:12:28Z</time>
      </trkpt>
      <trkpt lat="43.44831" lon="1.98397">
        <ele>227</ele>
        <time>2022-04-14T15:13:29Z</time>
      </trkpt>
      <trkpt lat="43.44822" lon="1.98334">
        <ele>226</ele>
        <time>2022-04-14T15:14:31Z</time>
      </trkpt>
      <trkpt lat="43.44833" lon="1.98259">
        <ele>225</ele>
        <time>2022-04-14T15:15:45Z</time>
      </trkpt>
      <trkpt lat="43.44818" lon="1.98198">
        <ele>226</ele>
        <time>2022-04-14T15:16:48Z</time>
      </trkpt>
      <trkpt lat="43.44864" lon="1.98131">
        <ele>224</ele>
        <time>2022-04-14T15:18:17Z</time>
      </trkpt>
      <trkpt lat="43.4487" lon="1.98084">
        <ele>223</ele>
        <time>2022-04-14T15:19:03Z</time>
      </trkpt>
      <trkpt lat="43.4485" lon="1.98034">
        <ele>222</ele>
        <time>2022-04-14T15:19:59Z</time>
      </trkpt>
      <trkpt lat="43.44817" lon="1.98026">
        <ele>222</ele>
        <time>2022-04-14T15:20:43Z</time>
      </trkpt>
      <trkpt lat="43.44763" lon="1.97976">
        <ele>222</ele>
        <time>2022-04-14T15:22:10Z</time>
      </trkpt>
      <trkpt lat="43.44703" lon="1.97907">
        <ele>222</ele>
        <time>2022-04-14T15:23:54Z</time>
      </trkpt>
      <trkpt lat="43.44692" lon="1.97845">
        <ele>223</ele>
        <time>2022-04-14T15:24:56Z</time>
      </trkpt>
      <trkpt lat="43.44659" lon="1.97745">
        <ele>224</ele>
        <time>2022-04-14T15:26:43Z</time>
      </trkpt>
      <trkpt lat="43.44635" lon="1.97705">
        <ele>223</ele>
        <time>2022-04-14T15:27:33Z</time>
      </trkpt>
      <trkpt lat="43.44615" lon="1.97618">
        <ele>222</ele>
        <time>2022-04-14T15:29:01Z</time>
      </trkpt>
      <trkpt lat="43.44572" lon="1.97579">
        <ele>224</ele>
        <time>2022-04-14T15:30:10Z</time>
      </trkpt>
      <trkpt lat="43.44543" lon="1.97506">
        <ele>225</ele>
        <time>2022-04-14T15:31:31Z</time>
      </trkpt>
      <trkpt lat="43.44559" lon="1.97463">
        <ele>224</ele>
        <time>2022-04-14T15:32:17Z</time>
      </trkpt>
      <trkpt lat="43.44586" lon="1.97377">
        <ele>225</ele>
        <time>2022-04-14T15:33:48Z</time>
      </trkpt>
      <trkpt lat="43.44624" lon="1.97323">
        <ele>224</ele>
        <time>2022-04-14T15:35:01Z</time>
      </trkpt>
      <trkpt lat="43.44636" lon="1.97249">
        <ele>224</ele>
        <time>2022-04-14T15:36:15Z</time>
      </trkpt>
      <trkpt lat="43.44583" lon="1.97186">
        <ele>226</ele>
        <time>2022-04-14T15:37:48Z</time>
      </trkpt>
      <trkpt lat="43.44569" lon="1.97152">
        <ele>225</ele>
        <time>2022-04-14T15:38:26Z</time>
      </trkpt>
      <trkpt lat="43.4457" lon="1.97058">
        <ele>223</ele>
        <time>2022-04-14T15:39:57Z</time>
      </trkpt>
      <trkpt lat="43.44484" lon="1.96846">
        <ele>226</ele>
        <time>2022-04-14T15:43:52Z</time>
      </trkpt>
      <trkpt lat="43.44517" lon="1.96782">
        <ele>227</ele>
        <time>2022-04-14T15:45:08Z</time>
      </trkpt>
      <trkpt lat="43.44555" lon="1.96637">
        <ele>225</ele>
        <time>2022-04-14T15:47:38Z</time>
      </trkpt>
      <trkpt lat="43.44544" lon="1.96574">
        <ele>226</ele>
        <time>2022-04-14T15:48:40Z</time>
      </trkpt>
      <trkpt lat="43.44542" lon="1.96517">
        <ele>223</ele>
        <time>2022-04-14T15:49:36Z</time>
      </trkpt>
      <trkpt lat="43.445" lon="1.96435">
        <ele>221</ele>
        <time>2022-04-14T15:51:13Z</time>
      </trkpt>
      <trkpt lat="43.44423" lon="1.96446">
        <ele>223</ele>
        <time>2022-04-14T15:52:56Z</time>
      </trkpt>
      <trkpt lat="43.44402" lon="1.96426">
        <ele>223</ele>
        <time>2022-04-14T15:53:30Z</time>
      </trkpt>
      <trkpt lat="43.44402" lon="1.96326">
        <ele>224</ele>
        <time>2022-04-14T15:55:07Z</time>
      </trkpt>
      <trkpt lat="43.44466" lon="1.96229">
        <ele>221</ele>
        <time>2022-04-14T15:57:14Z</time>
      </trkpt>
      <trkpt lat="43.44472" lon="1.96173">
        <ele>222</ele>
        <time>2022-04-14T15:58:09Z</time>
      </trkpt>
      <trkpt lat="43.4449" lon="1.96101">
        <ele>221</ele>
        <time>2022-04-14T15:59:23Z</time>
      </trkpt>
      <trkpt lat="43.44472" lon="1.96027">
        <ele>221</ele>
        <time>2022-04-14T16:00:38Z</time>
      </trkpt>
      <trkpt lat="43.44423" lon="1.95985">
        <ele>222</ele>
        <time>2022-04-14T16:01:55Z</time>
      </trkpt>
      <trkpt lat="43.44375" lon="1.95886">
        <ele>222</ele>
        <time>2022-04-14T16:03:51Z</time>
      </trkpt>
      <trkpt lat="43.4435" lon="1.95645">
        <ele>224</ele>
        <time>2022-04-14T16:07:47Z</time>
      </trkpt>
      <trkpt lat="43.44436" lon="1.955">
        <ele>225</ele>
        <time>2022-04-14T16:10:48Z</time>
      </trkpt>
      <trkpt lat="43.44488" lon="1.95388">
        <ele>221</ele>
        <time>2022-04-14T16:12:57Z</time>
      </trkpt>
      <trkpt lat="43.44497" lon="1.95328">
        <ele>222</ele>
        <time>2022-04-14T16:13:56Z</time>
      </trkpt>
      <trkpt lat="43.44475" lon="1.95299">
        <ele>221</ele>
        <time>2022-04-14T16:14:37Z</time>
      </trkpt>
      <trkpt lat="43.44444" lon="1.95308">
        <ele>224</ele>
        <time>2022-04-14T16:15:19Z</time>
      </trkpt>
      <trkpt lat="43.44415" lon="1.95327">
        <ele>228</ele>
        <time>2022-04-14T16:16:02Z</time>
      </trkpt>
      <trkpt lat="43.44377" lon="1.95301">
        <ele>225</ele>
        <time>2022-04-14T16:16:59Z</time>
      </trkpt>
      <trkpt lat="43.44282" lon="1.95275">
        <ele>219</ele>
        <time>2022-04-14T16:19:08Z</time>
      </trkpt>
      <trkpt lat="43.44256" lon="1.95297">
        <ele>219</ele>
        <time>2022-04-14T16:19:49Z</time>
      </trkpt>
      <trkpt lat="43.44253" lon="1.95388">
        <ele>222</ele>
        <time>2022-04-14T16:21:17Z</time>
      </trkpt>
      <trkpt lat="43.44222" lon="1.95468">
        <ele>223</ele>
        <time>2022-04-14T16:22:45Z</time>
      </trkpt>
      <trkpt lat="43.44117" lon="1.95571">
        <ele>223</ele>
        <time>2022-04-14T16:25:37Z</time>
      </trkpt>
      <trkpt lat="43.4401" lon="1.95724">
        <ele>224</ele>
        <time>2022-04-14T16:29:03Z</time>
      </trkpt>
      <trkpt lat="43.4394" lon="1.95782">
        <ele>225</ele>
        <time>2022-04-14T16:30:52Z</time>
      </trkpt>
      <trkpt lat="43.43922" lon="1.95761">
        <ele>225</ele>
        <time>2022-04-14T16:31:23Z</time>
      </trkpt>
      <trkpt lat="43.43934" lon="1.95713">
        <ele>224</ele>
        <time>2022-04-14T16:32:12Z</time>
      </trkpt>
      <trkpt lat="43.43972" lon="1.9561">
        <ele>222</ele>
        <time>2022-04-14T16:34:04Z</time>
      </trkpt>
      <trkpt lat="43.43969" lon="1.95538">
        <ele>222</ele>
        <time>2022-04-14T16:35:14Z</time>
      </trkpt>
      <trkpt lat="43.43919" lon="1.95461">
        <ele>223</ele>
        <time>2022-04-14T16:36:54Z</time>
      </trkpt>
      <trkpt lat="43.4392" lon="1.95397">
        <ele>221</ele>
        <time>2022-04-14T16:37:56Z</time>
      </trkpt>
      <trkpt lat="43.43926" lon="1.95358">
        <ele>218</ele>
        <time>2022-04-14T16:38:35Z</time>
      </trkpt>
      <trkpt lat="43.43906" lon="1.95335">
        <ele>217</ele>
        <time>2022-04-14T16:39:10Z</time>
      </trkpt>
      <trkpt lat="43.43873" lon="1.95344">
        <ele>217</ele>
        <time>2022-04-14T16:39:55Z</time>
      </trkpt>
      <trkpt lat="43.43697" lon="1.955">
        <ele>224</ele>
        <time>2022-04-14T16:44:34Z</time>
      </trkpt>
      <trkpt lat="43.43541" lon="1.95529">
        <ele>222</ele>
        <time>2022-04-14T16:48:04Z</time>
      </trkpt>
      <trkpt lat="43.43509" lon="1.95569">
        <ele>223</ele>
        <time>2022-04-14T16:49:02Z</time>
      </trkpt>
      <trkpt lat="43.43477" lon="1.95575">
        <ele>223</ele>
        <time>2022-04-14T16:49:45Z</time>
      </trkpt>
      <trkpt lat="43.43416" lon="1.95527">
        <ele>220</ele>
        <time>2022-04-14T16:51:18Z</time>
      </trkpt>
      <trkpt lat="43.4333" lon="1.95512">
        <ele>220</ele>
        <time>2022-04-14T16:53:14Z</time>
      </trkpt>
      <trkpt lat="43.4325" lon="1.9552">
        <ele>221</ele>
        <time>2022-04-14T16:55:01Z</time>
      </trkpt>
      <trkpt lat="43.43203" lon="1.95499">
        <ele>222</ele>
        <time>2022-04-14T16:56:07Z</time>
      </trkpt>
      <trkpt lat="43.43058" lon="1.95578">
        <ele>224</ele>
        <time>2022-04-14T16:59:35Z</time>
      </trkpt>
      <trkpt lat="43.42996" lon="1.95519">
        <ele>220</ele>
        <time>2022-04-14T17:01:16Z</time>
      </trkpt>
      <trkpt lat="43.43003" lon="1.95425">
        <ele>220</ele>
        <time>2022-04-14T17:02:47Z</time>
      </trkpt>
      <trkpt lat="43.42987" lon="1.95369">
        <ele>220</ele>
        <time>2022-04-14T17:03:46Z</time>
      </trkpt>
      <trkpt lat="43.42868" lon="1.95173">
        <ele>219</ele>
        <time>2022-04-14T17:07:53Z</time>
      </trkpt>
      <trkpt lat="43.42851" lon="1.95064">
        <ele>219</ele>
        <time>2022-04-14T17:09:41Z</time>
      </trkpt>
      <trkpt lat="43.42827" lon="1.94926">
        <ele>218</ele>
        <time>2022-04-14T17:11:59Z</time>
      </trkpt>
      <trkpt lat="43.4283" lon="1.94834">
        <ele>219</ele>
        <time>2022-04-14T17:13:28Z</time>
      </trkpt>
      <trkpt lat="43.42856" lon="1.94762">
        <ele>219</ele>
        <time>2022-04-14T17:14:46Z</time>
      </trkpt>
      <trkpt lat="43.42928" lon="1.94724">
        <ele>218</ele>
        <time>2022-04-14T17:16:29Z</time>
      </trkpt>
      <trkpt lat="43.42975" lon="1.94681">
        <ele>218</ele>
        <time>2022-04-14T17:17:44Z</time>
      </trkpt>
      <trkpt lat="43.43041" lon="1.94544">
        <ele>218</ele>
        <time>2022-04-14T17:20:23Z</time>
      </trkpt>
      <trkpt lat="43.43082" lon="1.94247">
        <ele>218</ele>
        <time>2022-04-14T17:25:16Z</time>
      </trkpt>
      <trkpt lat="43.43077" lon="1.94091">
        <ele>218</ele>
        <time>2022-04-14T17:27:48Z</time>
      </trkpt>
      <trkpt lat="43.43061" lon="1.94057">
        <ele>218</ele>
        <time>2022-04-14T17:28:27Z</time>
      </trkpt>
      <trkpt lat="43.43024" lon="1.94042">
        <ele>219</ele>
        <time>2022-04-14T17:29:19Z</time>
      </trkpt>
      <trkpt lat="43.43007" lon="1.94012">
        <ele>220</ele>
        <time>2022-04-14T17:29:55Z</time>
      </trkpt>
      <trkpt lat="43.42986" lon="1.93864">
        <ele>219</ele>
        <time>2022-04-14T17:32:22Z</time>
      </trkpt>
      <trkpt lat="43.42945" lon="1.93721">
        <ele>220</ele>
        <time>2022-04-14T17:34:51Z</time>
      </trkpt>
      <trkpt lat="43.42869" lon="1.93592">
        <ele>218</ele>
        <time>2022-04-14T17:37:31Z</time>
      </trkpt>
      <trkpt lat="43.42868" lon="1.93551">
        <ele>218</ele>
        <time>2022-04-14T17:38:11Z</time>
      </trkpt>
      <trkpt lat="43.42902" lon="1.93431">
        <ele>217</ele>
        <time>2022-04-14T17:40:16Z</time>
      </trkpt>
      <trkpt lat="43.42887" lon="1.93337">
        <ele>217</ele>
        <time>2022-04-14T17:41:49Z</time>
      </trkpt>
      <trkpt lat="43.42865" lon="1.93267">
        <ele>217</ele>
        <time>2022-04-14T17:43:03Z</time>
      </trkpt>
      <trkpt lat="43.42886" lon="1.93193">
        <ele>217</ele>
        <time>2022-04-14T17:44:20Z</time>
      </trkpt>
      <trkpt lat="43.42887" lon="1.93123">
        <ele>218</ele>
        <time>2022-04-14T17:45:28Z</time>
      </trkpt>
      <trkpt lat="43.43053" lon="1.92835">
        <ele>216</ele>
        <time>2022-04-14T17:51:24Z</time>
      </trkpt>
      <trkpt lat="43.43061" lon="1.9277">
        <ele>217</ele>
        <time>2022-04-14T17:52:28Z</time>
      </trkpt>
      <trkpt lat="43.43054" lon="1.92703">
        <ele>217</ele>
        <time>2022-04-14T17:53:34Z</time>
      </trkpt>
      <trkpt lat="43.43055" lon="1.92631">
        <ele>215</ele>
        <time>2022-04-14T17:54:44Z</time>
      </trkpt>
      <trkpt lat="43.43031" lon="1.92616">
        <ele>214</ele>
        <time>2022-04-14T17:55:19Z</time>
      </trkpt>
      <trkpt lat="43.4296" lon="1.92665">
        <ele>217</ele>
        <time>2022-04-14T17:57:05Z</time>
      </trkpt>
      <trkpt lat="43.42887" lon="1.92751">
        <ele>221</ele>
        <time>2022-04-14T17:59:13Z</time>
      </trkpt>
      <trkpt lat="43.42865" lon="1.92727">
        <ele>221</ele>
        <time>2022-04-14T17:59:51Z</time>
      </trkpt>
      <trkpt lat="43.42864" lon="1.92674">
        <ele>221</ele>
        <time>2022-04-14T18:00:42Z</time>
      </trkpt>
      <trkpt lat="43.42936" lon="1.92375">
        <ele>221</ele>
        <time>2022-04-14T18:05:47Z</time>
      </trkpt>
      <trkpt lat="43.42978" lon="1.92268">
        <ele>219</ele>
        <time>2022-04-14T18:07:45Z</time>
      </trkpt>
      <trkpt lat="43.43102" lon="1.92094">
        <ele>215</ele>
        <time>2022-04-14T18:11:41Z</time>
      </trkpt>
      <trkpt lat="43.43119" lon="1.92027">
        <ele>215</ele>
        <time>2022-04-14T18:12:50Z</time>
      </trkpt>
      <trkpt lat="43.4315" lon="1.91959">
        <ele>215</ele>
        <time>2022-04-14T18:14:08Z</time>
      </trkpt>
      <trkpt lat="43.43173" lon="1.91931">
        <ele>214</ele>
        <time>2022-04-14T18:14:49Z</time>
      </trkpt>
      <trkpt lat="43.43196" lon="1.91872">
        <ele>214</ele>
        <time>2022-04-14T18:15:54Z</time>
      </trkpt>
      <trkpt lat="43.43239" lon="1.91816">
        <ele>213</ele>
        <time>2022-04-14T18:17:13Z</time>
      </trkpt>
      <trkpt lat="43.43244" lon="1.9177">
        <ele>214</ele>
        <time>2022-04-14T18:17:58Z</time>
      </trkpt>
      <trkpt lat="43.43207" lon="1.91742">
        <ele>217</ele>
        <time>2022-04-14T18:18:54Z</time>
      </trkpt>
      <trkpt lat="43.43206" lon="1.91702">
        <ele>216</ele>
        <time>2022-04-14T18:19:33Z</time>
      </trkpt>
      <trkpt lat="43.43235" lon="1.91566">
        <ele>213</ele>
        <time>2022-04-14T18:21:50Z</time>
      </trkpt>
      <trkpt lat="43.43207" lon="1.91501">
        <ele>214</ele>
        <time>2022-04-14T18:23:04Z</time>
      </trkpt>
      <trkpt lat="43.43224" lon="1.91427">
        <ele>213</ele>
        <time>2022-04-14T18:24:19Z</time>
      </trkpt>
      <trkpt lat="43.43211" lon="1.91386">
        <ele>212</ele>
        <time>2022-04-14T18:25:02Z</time>
      </trkpt>
      <trkpt lat="43.43182" lon="1.91353">
        <ele>212</ele>
        <time>2022-04-14T18:25:52Z</time>
      </trkpt>
      <trkpt lat="43.43133" lon="1.91343">
        <ele>212</ele>
        <time>2022-04-14T18:26:58Z</time>
      </trkpt>
      <trkpt lat="43.43091" lon="1.91369">
        <ele>213</ele>
        <time>2022-04-14T18:28:00Z</time>
      </trkpt>
      <trkpt lat="43.43055" lon="1.91408">
        <ele>215</ele>
        <time>2022-04-14T18:29:01Z</time>
      </trkpt>
      <trkpt lat="43.43029" lon="1.91415">
        <ele>215</ele>
        <time>2022-04-14T18:29:36Z</time>
      </trkpt>
      <trkpt lat="43.43016" lon="1.91401">
        <ele>215</ele>
        <time>2022-04-14T18:29:58Z</time>
      </trkpt>
      <trkpt lat="43.43018" lon="1.91299">
        <ele>213</ele>
        <time>2022-04-14T18:31:37Z</time>
      </trkpt>
      <trkpt lat="43.42909" lon="1.91189">
        <ele>212</ele>
        <time>2022-04-14T18:34:38Z</time>
      </trkpt>
      <trkpt lat="43.42844" lon="1.91012">
        <ele>212</ele>
        <time>2022-04-14T18:37:50Z</time>
      </trkpt>
      <trkpt lat="43.42817" lon="1.90987">
        <ele>212</ele>
        <time>2022-04-14T18:38:33Z</time>
      </trkpt>
      <trkpt lat="43.42815" lon="1.90957">
        <ele>212</ele>
        <time>2022-04-14T18:39:02Z</time>
      </trkpt>
      <trkpt lat="43.42798" lon="1.90954">
        <ele>213</ele>
        <time>2022-04-14T18:39:25Z</time>
      </trkpt>
      <trkpt lat="43.42793" lon="1.90915">
        <ele>212</ele>
        <time>2022-04-14T18:40:04Z</time>
      </trkpt>
      <trkpt lat="43.42763" lon="1.90879">
        <ele>212</ele>
        <time>2022-04-14T18:40:57Z</time>
      </trkpt>
      <trkpt lat="43.42626" lon="1.90875">
        <ele>214</ele>
        <time>2022-04-14T18:44:00Z</time>
      </trkpt>
      <trkpt lat="43.42604" lon="1.90832">
        <ele>213</ele>
        <time>2022-04-14T18:44:51Z</time>
      </trkpt>
      <trkpt lat="43.4261" lon="1.90736">
        <ele>211</ele>
        <time>2022-04-14T18:46:24Z</time>
      </trkpt>
      <trkpt lat="43.42592" lon="1.90659">
        <ele>212</ele>
        <time>2022-04-14T18:47:42Z</time>
      </trkpt>
      <trkpt lat="43.42558" lon="1.90596">
        <ele>211</ele>
        <time>2022-04-14T18:48:58Z</time>
      </trkpt>
      <trkpt lat="43.42547" lon="1.90554">
        <ele>211</ele>
        <time>2022-04-14T18:49:42Z</time>
      </trkpt>
      <trkpt lat="43.42477" lon="1.90454">
        <ele>212</ele>
        <time>2022-04-14T18:51:56Z</time>
      </trkpt>
      <trkpt lat="43.42461" lon="1.90376">
        <ele>211</ele>
        <time>2022-04-14T18:53:15Z</time>
      </trkpt>
      <trkpt lat="43.42481" lon="1.90321">
        <ele>211</ele>
        <time>2022-04-14T18:54:15Z</time>
      </trkpt>
      <trkpt lat="43.42556" lon="1.90256">
        <ele>210</ele>
        <time>2022-04-14T18:56:13Z</time>
      </trkpt>
      <trkpt lat="43.4263" lon="1.90166">
        <ele>213</ele>
        <time>2022-04-14T18:58:25Z</time>
      </trkpt>
      <trkpt lat="43.42682" lon="1.90052">
        <ele>212</ele>
        <time>2022-04-14T19:00:35Z</time>
      </trkpt>
      <trkpt lat="43.42656" lon="1.89992">
        <ele>210</ele>
        <time>2022-04-14T19:01:43Z</time>
      </trkpt>
      <trkpt lat="43.42676" lon="1.89891">
        <ele>211</ele>
        <time>2022-04-14T19:03:24Z</time>
      </trkpt>
      <trkpt lat="43.4267" lon="1.89835">
        <ele>210</ele>
        <time>2022-04-14T19:04:19Z</time>
      </trkpt>
      <trkpt lat="43.42688" lon="1.8973">
        <ele>212</ele>
        <time>2022-04-14T19:06:04Z</time>
      </trkpt>
      <trkpt lat="43.42713" lon="1.8969">
        <ele>212</ele>
        <time>2022-04-14T19:06:55Z</time>
      </trkpt>
      <trkpt lat="43.42777" lon="1.89675">
        <ele>212</ele>
        <time>2022-04-14T19:08:21Z</time>
      </trkpt>
      <trkpt lat="43.42798" lon="1.89699">
        <ele>213</ele>
        <time>2022-04-14T19:08:58Z</time>
      </trkpt>
      <trkpt lat="43.42844" lon="1.89771">
        <ele>214</ele>
        <time>2022-04-14T19:10:31Z</time>
      </trkpt>
      <trkpt lat="43.4289" lon="1.89803">
        <ele>214</ele>
        <time>2022-04-14T19:11:40Z</time>
      </trkpt>
      <trkpt lat="43.42925" lon="1.89804">
        <ele>214</ele>
        <time>2022-04-14T19:12:26Z</time>
      </trkpt>
      <trkpt lat="43.42932" lon="1.89746">
        <ele>213</ele>
        <time>2022-04-14T19:13:23Z</time>
      </trkpt>
      <trkpt lat="43.42878" lon="1.89707">
        <ele>213</ele>
        <time>2022-04-14T19:14:45Z</time>
      </trkpt>
      <trkpt lat="43.42854" lon="1.8966">
        <ele>212</ele>
        <time>2022-04-14T19:15:40Z</time>
      </trkpt>
      <trkpt lat="43.42781" lon="1.89611">
        <ele>211</ele>
        <time>2022-04-14T19:17:29Z</time>
      </trkpt>
      <trkpt lat="43.42773" lon="1.89573">
        <ele>210</ele>
        <time>2022-04-14T19:18:07Z</time>
      </trkpt>
      <trkpt lat="43.42811" lon="1.8951">
        <ele>213</ele>
        <time>2022-04-14T19:19:26Z</time>
      </trkpt>
      <trkpt lat="43.42821" lon="1.89423">
        <ele>213</ele>
        <time>2022-04-14T19:20:52Z</time>
      </trkpt>
      <trkpt lat="43.42813" lon="1.89416">
        <ele>213</ele>
        <time>2022-04-14T19:21:04Z</time>
      </trkpt>
      <trkpt lat="43.42753" lon="1.89433">
        <ele>211</ele>
        <time>2022-04-14T19:22:26Z</time>
      </trkpt>
      <trkpt lat="43.42729" lon="1.89416">
        <ele>210</ele>
        <time>2022-04-14T19:23:02Z</time>
      </trkpt>
      <trkpt lat="43.42666" lon="1.89244">
        <ele>210</ele>
        <time>2022-04-14T19:26:09Z</time>
      </trkpt>
      <trkpt lat="43.42685" lon="1.89129">
        <ele>213</ele>
        <time>2022-04-14T19:28:03Z</time>
      </trkpt>
      <trkpt lat="43.42676" lon="1.89111">
        <ele>214</ele>
        <time>2022-04-14T19:28:24Z</time>
      </trkpt>
      <trkpt lat="43.42603" lon="1.89105">
        <ele>210</ele>
        <time>2022-04-14T19:30:02Z</time>
      </trkpt>
      <trkpt lat="43.4258" lon="1.89041">
        <ele>211</ele>
        <time>2022-04-14T19:31:11Z</time>
      </trkpt>
      <trkpt lat="43.42511" lon="1.88923">
        <ele>211</ele>
        <time>2022-04-14T19:33:38Z</time>
      </trkpt>
      <trkpt lat="43.42437" lon="1.88913">
        <ele>213</ele>
        <time>2022-04-14T19:35:17Z</time>
      </trkpt>
      <trkpt lat="43.4237" lon="1.88852">
        <ele>214</ele>
        <time>2022-04-14T19:37:04Z</time>
      </trkpt>
      <trkpt lat="43.42368" lon="1.88802">
        <ele>213</ele>
        <time>2022-04-14T19:37:53Z</time>
      </trkpt>
      <trkpt lat="43.42389" lon="1.88729">
        <ele>212</ele>
        <time>2022-04-14T19:39:09Z</time>
      </trkpt>
      <trkpt lat="43.42391" lon="1.88661">
        <ele>212</ele>
        <time>2022-04-14T19:40:15Z</time>
      </trkpt>
      <trkpt lat="43.4236" lon="1.886">
        <ele>210</ele>
        <time>2022-04-14T19:41:27Z</time>
      </trkpt>
      <trkpt lat="43.42366" lon="1.8855">
        <ele>211</ele>
        <time>2022-04-14T19:42:16Z</time>
      </trkpt>
      <trkpt lat="43.42397" lon="1.88464">
        <ele>213</ele>
        <time>2022-04-14T19:43:49Z</time>
      </trkpt>
      <trkpt lat="43.42353" lon="1.88436">
        <ele>211</ele>
        <time>2022-04-14T19:44:54Z</time>
      </trkpt>
      <trkpt lat="43.42297" lon="1.8835">
        <ele>212</ele>
        <time>2022-04-14T19:46:46Z</time>
      </trkpt>
      <trkpt lat="43.4223" lon="1.88305">
        <ele>213</ele>
        <time>2022-04-14T19:48:25Z</time>
      </trkpt>
      <trkpt lat="43.42181" lon="1.88242">
        <ele>213</ele>
        <time>2022-04-14T19:49:55Z</time>
      </trkpt>
      <trkpt lat="43.42165" lon="1.88176">
        <ele>211</ele>
        <time>2022-04-14T19:51:02Z</time>
      </trkpt>
      <trkpt lat="43.42167" lon="1.88125">
        <ele>212</ele>
        <time>2022-04-14T19:51:52Z</time>
      </trkpt>
      <trkpt lat="43.42162" lon="1.88116">
        <ele>211</ele>
        <time>2022-04-14T19:52:03Z</time>
      </trkpt>
      <trkpt lat="43.42135" lon="1.88116">
        <ele>210</ele>
        <time>2022-04-14T19:52:39Z</time>
      </trkpt>
      <trkpt lat="43.42113" lon="1.88091">
        <ele>210</ele>
        <time>2022-04-14T19:53:17Z</time>
      </trkpt>
      <trkpt lat="43.42085" lon="1.88041">
        <ele>212</ele>
        <time>2022-04-14T19:54:18Z</time>
      </trkpt>
      <trkpt lat="43.42042" lon="1.88012">
        <ele>213</ele>
        <time>2022-04-14T19:55:22Z</time>
      </trkpt>
      <trkpt lat="43.41884" lon="1.88016">
        <ele>212</ele>
        <time>2022-04-14T19:58:53Z</time>
      </trkpt>
      <trkpt lat="43.41736" lon="1.87957">
        <ele>212</ele>
        <time>2022-04-14T20:02:18Z</time>
      </trkpt>
      <trkpt lat="43.41707" lon="1.87964">
        <ele>213</ele>
        <time>2022-04-14T20:02:58Z</time>
      </trkpt>
      <trkpt lat="43.41476" lon="1.88115">
        <ele>211</ele>
        <time>2022-04-14T20:08:39Z</time>
      </trkpt>
      <trkpt lat="43.41372" lon="1.88137">
        <ele>209</ele>
        <time>2022-04-14T20:10:59Z</time>
      </trkpt>
      <trkpt lat="43.41355" lon="1.88122">
        <ele>210</ele>
        <time>2022-04-14T20:11:26Z</time>
      </trkpt>
      <trkpt lat="43.41348" lon="1.88069">
        <ele>213</ele>
        <time>2022-04-14T20:12:19Z</time>
      </trkpt>
      <trkpt lat="43.41332" lon="1.88064">
        <ele>214</ele>
        <time>2022-04-14T20:12:40Z</time>
      </trkpt>
      <trkpt lat="43.4124" lon="1.88121">
        <ele>209</ele>
        <time>2022-04-14T20:14:55Z</time>
      </trkpt>
      <trkpt lat="43.41224" lon="1.88098">
        <ele>210</ele>
        <time>2022-04-14T20:15:26Z</time>
      </trkpt>
      <trkpt lat="43.41215" lon="1.88009">
        <ele>213</ele>
        <time>2022-04-14T20:16:53Z</time>
      </trkpt>
      <trkpt lat="43.41163" lon="1.88018">
        <ele>211</ele>
        <time>2022-04-14T20:18:03Z</time>
      </trkpt>
      <trkpt lat="43.41141" lon="1.88015">
        <ele>211</ele>
        <time>2022-04-14T20:18:33Z</time>
      </trkpt>
      <trkpt lat="43.41075" lon="1.88057">
        <ele>209</ele>
        <time>2022-04-14T20:20:10Z</time>
      </trkpt>
      <trkpt lat="43.41006" lon="1.88083">
        <ele>211</ele>
        <time>2022-04-14T20:21:45Z</time>
      </trkpt>
      <trkpt lat="43.40947" lon="1.88162">
        <ele>207</ele>
        <time>2022-04-14T20:23:35Z</time>
      </trkpt>
      <trkpt lat="43.40914" lon="1.88176">
        <ele>209</ele>
        <time>2022-04-14T20:24:21Z</time>
      </trkpt>
      <trkpt lat="43.40874" lon="1.8818">
        <ele>210</ele>
        <time>2022-04-14T20:25:14Z</time>
      </trkpt>
      <trkpt lat="43.40835" lon="1.88269">
        <ele>209</ele>
        <time>2022-04-14T20:26:55Z</time>
      </trkpt>
      <trkpt lat="43.40791" lon="1.88322">
        <ele>206</ele>
        <time>2022-04-14T20:28:13Z</time>
      </trkpt>
      <trkpt lat="43.40752" lon="1.8832">
        <ele>208</ele>
        <time>2022-04-14T20:29:05Z</time>
      </trkpt>
      <trkpt lat="43.40702" lon="1.88294">
        <ele>209</ele>
        <time>2022-04-14T20:30:17Z</time>
      </trkpt>
      <trkpt lat="43.40615" lon="1.88355">
        <ele>209</ele>
        <time>2022-04-14T20:32:27Z</time>
      </trkpt>
      <trkpt lat="43.40548" lon="1.88375">
        <ele>209</ele>
        <time>2022-04-14T20:33:58Z</time>
      </trkpt>
      <trkpt lat="43.40495" lon="1.88356">
        <ele>209</ele>
        <time>2022-04-14T20:35:11Z</time>
      </trkpt>
      <trkpt lat="43.40461" lon="1.88338">
        <ele>209</ele>
        <time>2022-04-14T20:36:00Z</time>
      </trkpt>
      <trkpt lat="43.40308" lon="1.88452">
        <ele>206</ele>
        <time>2022-04-14T20:39:52Z</time>
      </trkpt>
      <trkpt lat="43.40286" lon="1.88437">
        <ele>206</ele>
        <time>2022-04-14T20:40:25Z</time>
      </trkpt>
      <trkpt lat="43.40284" lon="1.8839">
        <ele>206</ele>
        <time>2022-04-14T20:41:11Z</time>
      </trkpt>
      <trkpt lat="43.40333" lon="1.8817">
        <ele>209</ele>
        <time>2022-04-14T20:44:54Z</time>
      </trkpt>
      <trkpt lat="43.40314" lon="1.88112">
        <ele>209</ele>
        <time>2022-04-14T20:45:55Z</time>
      </trkpt>
      <trkpt lat="43.40278" lon="1.88062">
        <ele>206</ele>
        <time>2022-04-14T20:47:04Z</time>
      </trkpt>
      <trkpt lat="43.40276" lon="1.88015">
        <ele>206</ele>
        <time>2022-04-14T20:47:49Z</time>
      </trkpt>
      <trkpt lat="43.40344" lon="1.8784">
        <ele>210</ele>
        <time>2022-04-14T20:51:02Z</time>
      </trkpt>
      <trkpt lat="43.40336" lon="1.87806">
        <ele>210</ele>
        <time>2022-04-14T20:51:36Z</time>
      </trkpt>
      <trkpt lat="43.40289" lon="1.87803">
        <ele>208</ele>
        <time>2022-04-14T20:52:39Z</time>
      </trkpt>
      <trkpt lat="43.40246" lon="1.87754">
        <ele>210</ele>
        <time>2022-04-14T20:53:54Z</time>
      </trkpt>
      <trkpt lat="43.4017" lon="1.87757">
        <ele>208</ele>
        <time>2022-04-14T20:55:35Z</time>
      </trkpt>
      <trkpt lat="43.4011" lon="1.87778">
        <ele>207</ele>
        <time>2022-04-14T20:56:58Z</time>
      </trkpt>
      <trkpt lat="43.40081" lon="1.87774">
        <ele>207</ele>
        <time>2022-04-14T20:57:37Z</time>
      </trkpt>
      <trkpt lat="43.40046" lon="1.87728">
        <ele>207</ele>
        <time>2022-04-14T20:58:41Z</time>
      </trkpt>
      <trkpt lat="43.40038" lon="1.8769">
        <ele>208</ele>
        <time>2022-04-14T20:59:20Z</time>
      </trkpt>
      <trkpt lat="43.39979" lon="1.8764">
        <ele>205</ele>
        <time>2022-04-14T21:00:52Z</time>
      </trkpt>
      <trkpt lat="43.39964" lon="1.87534">
        <ele>208</ele>
        <time>2022-04-14T21:02:37Z</time>
      </trkpt>
      <trkpt lat="43.39946" lon="1.87513">
        <ele>209</ele>
        <time>2022-04-14T21:03:08Z</time>
      </trkpt>
      <trkpt lat="43.39861" lon="1.87512">
        <ele>207</ele>
        <time>2022-04-14T21:05:02Z</time>
      </trkpt>
      <trkpt lat="43.39819" lon="1.87459">
        <ele>209</ele>
        <time>2022-04-14T21:06:18Z</time>
      </trkpt>
      <trkpt lat="43.39779" lon="1.8744">
        <ele>209</ele>
        <time>2022-04-14T21:07:14Z</time>
      </trkpt>
      <trkpt lat="43.39739" lon="1.87392">
        <ele>210</ele>
        <time>2022-04-14T21:08:25Z</time>
      </trkpt>
      <trkpt lat="43.3971" lon="1.87374">
        <ele>212</ele>
        <time>2022-04-14T21:09:07Z</time>
      </trkpt>
      <trkpt lat="43.39645" lon="1.87485">
        <ele>208</ele>
        <time>2022-04-14T21:11:26Z</time>
      </trkpt>
      <trkpt lat="43.39623" lon="1.8757">
        <ele>203</ele>
        <time>2022-04-14T21:12:53Z</time>
      </trkpt>
      <trkpt lat="43.39601" lon="1.87584">
        <ele>203</ele>
        <time>2022-04-14T21:13:26Z</time>
      </trkpt>
      <trkpt lat="43.39577" lon="1.87542">
        <ele>208</ele>
        <time>2022-04-14T21:14:17Z</time>
      </trkpt>
      <trkpt lat="43.39548" lon="1.87528">
        <ele>209</ele>
        <time>2022-04-14T21:14:58Z</time>
      </trkpt>
      <trkpt lat="43.39474" lon="1.87578">
        <ele>205</ele>
        <time>2022-04-14T21:16:48Z</time>
      </trkpt>
      <trkpt lat="43.39428" lon="1.8754">
        <ele>208</ele>
        <time>2022-04-14T21:18:00Z</time>
      </trkpt>
      <trkpt lat="43.39396" lon="1.87542">
        <ele>208</ele>
        <time>2022-04-14T21:18:43Z</time>
      </trkpt>
      <trkpt lat="43.39349" lon="1.87577">
        <ele>205</ele>
        <time>2022-04-14T21:19:54Z</time>
      </trkpt>
      <trkpt lat="43.39326" lon="1.87563">
        <ele>205</ele>
        <time>2022-04-14T21:20:28Z</time>
      </trkpt>
      <trkpt lat="43.39314" lon="1.87526">
        <ele>205</ele>
        <time>2022-04-14T21:21:07Z</time>
      </trkpt>
      <trkpt lat="43.39316" lon="1.87433">
        <ele>206</ele>
        <time>2022-04-14T21:22:37Z</time>
      </trkpt>
      <trkpt lat="43.39359" lon="1.87309">
        <ele>208</ele>
        <time>2022-04-14T21:24:50Z</time>
      </trkpt>
      <trkpt lat="43.39372" lon="1.87242">
        <ele>208</ele>
        <time>2022-04-14T21:25:58Z</time>
      </trkpt>
      <trkpt lat="43.39364" lon="1.8719">
        <ele>210</ele>
        <time>2022-04-14T21:26:49Z</time>
      </trkpt>
      <trkpt lat="43.39348" lon="1.87173">
        <ele>209</ele>
        <time>2022-04-14T21:27:16Z</time>
      </trkpt>
      <trkpt lat="43.39325" lon="1.87187">
        <ele>208</ele>
        <time>2022-04-14T21:27:50Z</time>
      </trkpt>
      <trkpt lat="43.393" lon="1.87221">
        <ele>205</ele>
        <time>2022-04-14T21:28:37Z</time>
      </trkpt>
      <trkpt lat="43.3927" lon="1.87213">
        <ele>204</ele>
        <time>2022-04-14T21:29:17Z</time>
      </trkpt>
      <trkpt lat="43.39243" lon="1.8716">
        <ele>205</ele>
        <time>2022-04-14T21:30:20Z</time>
      </trkpt>
      <trkpt lat="43.39237" lon="1.87095">
        <ele>206</ele>
        <time>2022-04-14T21:31:24Z</time>
      </trkpt>
      <trkpt lat="43.39243" lon="1.87073">
        <ele>206</ele>
        <time>2022-04-14T21:31:46Z</time>
      </trkpt>
      <trkpt lat="43.39235" lon="1.87056">
        <ele>206</ele>
        <time>2022-04-14T21:32:06Z</time>
      </trkpt>
      <trkpt lat="43.39179" lon="1.87076">
        <ele>205</ele>
        <time>2022-04-14T21:33:23Z</time>
      </trkpt>
      <trkpt lat="43.3914" lon="1.87059">
        <ele>204</ele>
        <time>2022-04-14T21:34:18Z</time>
      </trkpt>
      <trkpt lat="43.39136" lon="1.87002">
        <ele>207</ele>
        <time>2022-04-14T21:35:13Z</time>
      </trkpt>
      <trkpt lat="43.39158" lon="1.86873">
        <ele>210</ele>
        <time>2022-04-14T21:37:22Z</time>
      </trkpt>
      <trkpt lat="43.39145" lon="1.8686">
        <ele>210</ele>
        <time>2022-04-14T21:37:43Z</time>
      </trkpt>
      <trkpt lat="43.39077" lon="1.86946">
        <ele>209</ele>
        <time>2022-04-14T21:39:47Z</time>
      </trkpt>
      <trkpt lat="43.3901" lon="1.87103">
        <ele>205</ele>
        <time>2022-04-14T21:42:43Z</time>
      </trkpt>
      <trkpt lat="43.38989" lon="1.87107">
        <ele>205</ele>
        <time>2022-04-14T21:43:11Z</time>
      </trkpt>
      <trkpt lat="43.38921" lon="1.87067">
        <ele>208</ele>
        <time>2022-04-14T21:44:50Z</time>
      </trkpt>
      <trkpt lat="43.38861" lon="1.871">
        <ele>206</ele>
        <time>2022-04-14T21:46:16Z</time>
      </trkpt>
      <trkpt lat="43.38821" lon="1.87081">
        <ele>207</ele>
        <time>2022-04-14T21:47:13Z</time>
      </trkpt>
      <trkpt lat="43.38799" lon="1.8702">
        <ele>207</ele>
        <time>2022-04-14T21:48:19Z</time>
      </trkpt>
      <trkpt lat="43.38805" lon="1.86981">
        <ele>207</ele>
        <time>2022-04-14T21:48:58Z</time>
      </trkpt>
      <trkpt lat="43.38873" lon="1.8692">
        <ele>208</ele>
        <time>2022-04-14T21:50:46Z</time>
      </trkpt>
      <trkpt lat="43.38965" lon="1.86772">
        <ele>209</ele>
        <time>2022-04-14T21:53:55Z</time>
      </trkpt>
      <trkpt lat="43.38956" lon="1.86744">
        <ele>209</ele>
        <time>2022-04-14T21:54:24Z</time>
      </trkpt>
      <trkpt lat="43.38912" lon="1.86745">
        <ele>209</ele>
        <time>2022-04-14T21:55:23Z</time>
      </trkpt>
      <trkpt lat="43.38834" lon="1.86806">
        <ele>206</ele>
        <time>2022-04-14T21:57:23Z</time>
      </trkpt>
      <trkpt lat="43.38802" lon="1.86802">
        <ele>206</ele>
        <time>2022-04-14T21:58:06Z</time>
      </trkpt>
      <trkpt lat="43.38765" lon="1.86762">
        <ele>209</ele>
        <time>2022-04-14T21:59:09Z</time>
      </trkpt>
      <trkpt lat="43.38625" lon="1.86877">
        <ele>210</ele>
        <time>2022-04-14T22:02:46Z</time>
      </trkpt>
      <trkpt lat="43.38568" lon="1.86957">
        <ele>207</ele>
        <time>2022-04-14T22:04:35Z</time>
      </trkpt>
      <trkpt lat="43.38481" lon="1.87117">
        <ele>205</ele>
        <time>2022-04-14T22:07:49Z</time>
      </trkpt>
      <trkpt lat="43.38461" lon="1.87218">
        <ele>204</ele>
        <time>2022-04-14T22:09:30Z</time>
      </trkpt>
      <trkpt lat="43.38425" lon="1.87325">
        <ele>205</ele>
        <time>2022-04-14T22:11:24Z</time>
      </trkpt>
      <trkpt lat="43.38393" lon="1.87351">
        <ele>205</ele>
        <time>2022-04-14T22:12:14Z</time>
      </trkpt>
      <trkpt lat="43.38341" lon="1.87349">
        <ele>207</ele>
        <time>2022-04-14T22:13:23Z</time>
      </trkpt>
      <trkpt lat="43.38319" lon="1.87291">
        <ele>206</ele>
        <time>2022-04-14T22:14:27Z</time>
      </trkpt>
      <trkpt lat="43.38348" lon="1.87153">
        <ele>205</ele>
        <time>2022-04-14T22:16:46Z</time>
      </trkpt>
      <trkpt lat="43.38378" lon="1.86942">
        <ele>204</ele>
        <time>2022-04-14T22:20:15Z</time>
      </trkpt>
      <trkpt lat="43.38379" lon="1.86842">
        <ele>204</ele>
        <time>2022-04-14T22:21:52Z</time>
      </trkpt>
      <trkpt lat="43.3838" lon="1.86838">
        <ele>204</ele>
        <time>2022-04-14T22:21:56Z</time>
      </trkpt>
      <trkpt lat="43.38405" lon="1.86766">
        <ele>207</ele>
        <time>2022-04-14T22:23:13Z</time>
      </trkpt>
      <trkpt lat="43.38367" lon="1.86689">
        <ele>207</ele>
        <time>2022-04-14T22:24:44Z</time>
      </trkpt>
      <trkpt lat="43.38319" lon="1.86688">
        <ele>205</ele>
        <time>2022-04-14T22:25:48Z</time>
      </trkpt>
      <trkpt lat="43.38287" lon="1.866">
        <ele>205</ele>
        <time>2022-04-14T22:27:23Z</time>
      </trkpt>
      <trkpt lat="43.38284" lon="1.86506">
        <ele>206</ele>
        <time>2022-04-14T22:28:54Z</time>
      </trkpt>
      <trkpt lat="43.38302" lon="1.8642">
        <ele>207</ele>
        <time>2022-04-14T22:30:21Z</time>
      </trkpt>
      <trkpt lat="43.38287" lon="1.86395">
        <ele>207</ele>
        <time>2022-04-14T22:30:52Z</time>
      </trkpt>
      <trkpt lat="43.38182" lon="1.86432">
        <ele>208</ele>
        <time>2022-04-14T22:33:17Z</time>
      </trkpt>
      <trkpt lat="43.38079" lon="1.86523">
        <ele>209</ele>
        <time>2022-04-14T22:36:00Z</time>
      </trkpt>
      <trkpt lat="43.3802" lon="1.86623">
        <ele>211</ele>
        <time>2022-04-14T22:38:05Z</time>
      </trkpt>
      <trkpt lat="43.37975" lon="1.86693">
        <ele>212</ele>
        <time>2022-04-14T22:39:36Z</time>
      </trkpt>
      <trkpt lat="43.37927" lon="1.86818">
        <ele>208</ele>
        <time>2022-04-14T22:41:53Z</time>
      </trkpt>
      <trkpt lat="43.37877" lon="1.86853">
        <ele>213</ele>
        <time>2022-04-14T22:43:08Z</time>
      </trkpt>
      <trkpt lat="43.37731" lon="1.87124">
        <ele>209</ele>
        <time>2022-04-14T22:48:35Z</time>
      </trkpt>
      <trkpt lat="43.37658" lon="1.87219">
        <ele>209</ele>
        <time>2022-04-14T22:50:49Z</time>
      </trkpt>
      <trkpt lat="43.37625" lon="1.87289">
        <ele>206</ele>
        <time>2022-04-14T22:52:10Z</time>
      </trkpt>
      <trkpt lat="43.37563" lon="1.87346">
        <ele>209</ele>
        <time>2022-04-14T22:53:50Z</time>
      </trkpt>
      <trkpt lat="43.37522" lon="1.87453">
        <ele>206</ele>
        <time>2022-04-14T22:55:47Z</time>
      </trkpt>
      <trkpt lat="43.37464" lon="1.8751">
        <ele>205</ele>
        <time>2022-04-14T22:57:22Z</time>
      </trkpt>
      <trkpt lat="43.37437" lon="1.87505">
        <ele>205</ele>
        <time>2022-04-14T22:57:59Z</time>
      </trkpt>
      <trkpt lat="43.37381" lon="1.87419">
        <ele>203</ele>
        <time>2022-04-14T22:59:51Z</time>
      </trkpt>
      <trkpt lat="43.37375" lon="1.87291">
        <ele>205</ele>
        <time>2022-04-14T23:01:55Z</time>
      </trkpt>
      <trkpt lat="43.37377" lon="1.87154">
        <ele>204</ele>
        <time>2022-04-14T23:04:08Z</time>
      </trkpt>
      <trkpt lat="43.37359" lon="1.87085">
        <ele>203</ele>
        <time>2022-04-14T23:05:19Z</time>
      </trkpt>
      <trkpt lat="43.37382" lon="1.86967">
        <ele>202</ele>
        <time>2022-04-14T23:07:17Z</time>
      </trkpt>
      <trkpt lat="43.37422" lon="1.86816">
        <ele>202</ele>
        <time>2022-04-14T23:09:53Z</time>
      </trkpt>
      <trkpt lat="43.37475" lon="1.867">
        <ele>204</ele>
        <time>2022-04-14T23:12:06Z</time>
      </trkpt>
      <trkpt lat="43.37487" lon="1.86623">
        <ele>205</ele>
        <time>2022-04-14T23:13:23Z</time>
      </trkpt>
      <trkpt lat="43.37464" lon="1.86587">
        <ele>204</ele>
        <time>2022-04-14T23:14:09Z</time>
      </trkpt>
    </trkseg>
  </trk>
</gpx>